createdAt,value
2017-07-21T00:00:11.121Z,14.63
2017-07-21T00:00:39.264Z,14.63
2017-07-21T00:01:07.365Z,14.61
2017-07-21T00:01:35.616Z,14.56
2017-07-21T00:02:03.734Z,14.63
2017-07-21T00:02:31.895Z,14.57
2017-07-21T00:03:00.080Z,14.67
2017-07-21T00:03:28.217Z,14.66
2017-07-21T00:03:56.314Z,14.59
2017-07-21T00:04:24.598Z,14.53
2017-07-21T00:04:52.616Z,14.6
2017-07-21T00:05:20.832Z,14.6
2017-07-21T00:05:49.067Z,14.67
2017-07-21T00:06:17.228Z,14.69
2017-07-21T00:06:45.486Z,14.64
2017-07-21T00:07:13.446Z,14.66
2017-07-21T00:07:41.605Z,14.8
2017-07-21T00:08:09.763Z,14.66
2017-07-21T00:08:37.835Z,14.75
2017-07-21T00:09:06.055Z,14.75
2017-07-21T00:09:34.356Z,14.75
2017-07-21T00:10:02.439Z,14.74
2017-07-21T00:10:30.577Z,14.79
2017-07-21T00:10:58.596Z,14.71
2017-07-21T00:11:26.736Z,14.85
2017-07-21T00:11:54.880Z,14.75
2017-07-21T00:12:23.071Z,14.87
2017-07-21T00:12:51.239Z,14.8
2017-07-21T00:13:19.438Z,14.75
2017-07-21T00:13:47.680Z,14.89
2017-07-21T00:14:15.943Z,14.83
2017-07-21T00:14:44.215Z,14.93
2017-07-21T00:15:12.319Z,14.89
2017-07-21T00:15:40.323Z,14.93
2017-07-21T00:16:08.545Z,15.01
2017-07-21T00:16:36.688Z,14.94
2017-07-21T00:17:04.939Z,14.87
2017-07-21T00:17:33.101Z,14.94
2017-07-21T00:18:01.098Z,14.93
2017-07-21T00:18:29.374Z,14.94
2017-07-21T00:18:57.517Z,14.94
2017-07-21T00:19:25.683Z,15.01
2017-07-21T00:19:53.891Z,14.95
2017-07-21T00:20:21.912Z,14.93
2017-07-21T00:20:50.133Z,14.94
2017-07-21T00:21:18.333Z,14.89
2017-07-21T00:21:46.547Z,15.02
2017-07-21T00:22:14.758Z,14.95
2017-07-21T00:22:43.019Z,14.87
2017-07-21T00:23:11.280Z,14.79
2017-07-21T00:23:39.463Z,14.82
2017-07-21T00:24:07.553Z,14.82
2017-07-21T00:24:35.655Z,14.71
2017-07-21T00:25:03.881Z,14.74
2017-07-21T00:25:32.002Z,14.75
2017-07-21T00:26:00.253Z,14.79
2017-07-21T00:26:28.240Z,14.75
2017-07-21T00:26:56.410Z,14.75
2017-07-21T00:27:24.446Z,14.71
2017-07-21T00:27:52.579Z,14.66
2017-07-21T00:28:20.650Z,14.85
2017-07-21T00:28:48.792Z,14.69
2017-07-21T00:29:17.015Z,14.66
2017-07-21T00:29:45.259Z,14.64
2017-07-21T00:30:13.267Z,14.59
2017-07-21T00:30:41.483Z,14.63
2017-07-21T00:31:09.569Z,14.59
2017-07-21T00:31:37.601Z,14.6
2017-07-21T00:32:05.853Z,14.56
2017-07-21T00:32:34.046Z,14.57
2017-07-21T00:33:02.065Z,14.53
2017-07-21T00:33:30.318Z,14.53
2017-07-21T00:33:58.486Z,14.57
2017-07-21T00:34:26.717Z,14.6
2017-07-21T00:34:54.906Z,14.53
2017-07-21T00:35:23.118Z,14.57
2017-07-21T00:35:51.258Z,14.56
2017-07-21T00:36:19.264Z,14.56
2017-07-21T00:36:47.375Z,14.63
2017-07-21T00:37:15.489Z,14.59
2017-07-21T00:37:43.698Z,14.57
2017-07-21T00:38:11.917Z,14.57
2017-07-21T00:38:40.027Z,14.52
2017-07-21T00:39:08.062Z,14.52
2017-07-21T00:39:36.279Z,14.51
2017-07-21T00:40:04.625Z,14.46
2017-07-21T00:40:32.856Z,14.46
2017-07-21T00:41:00.975Z,14.53
2017-07-21T00:41:29.124Z,14.52
2017-07-21T00:41:57.135Z,14.51
2017-07-21T00:42:25.342Z,14.56
2017-07-21T00:42:53.396Z,14.57
2017-07-21T00:43:21.542Z,14.45
2017-07-21T00:43:49.594Z,14.51
2017-07-21T00:44:17.773Z,14.52
2017-07-21T00:44:46.106Z,14.52
2017-07-21T00:45:14.234Z,14.51
2017-07-21T00:45:42.369Z,14.52
2017-07-21T00:46:10.417Z,14.56
2017-07-21T00:46:38.590Z,14.57
2017-07-21T00:47:06.717Z,14.49
2017-07-21T00:47:34.618Z,14.49
2017-07-21T00:48:02.595Z,14.53
2017-07-21T00:48:30.711Z,14.61
2017-07-21T00:48:58.856Z,14.6
2017-07-21T00:49:27.071Z,14.63
2017-07-21T00:49:55.333Z,14.66
2017-07-21T00:50:23.459Z,14.63
2017-07-21T00:50:51.679Z,14.64
2017-07-21T00:51:19.915Z,14.6
2017-07-21T00:51:48.095Z,14.67
2017-07-21T00:52:16.305Z,14.56
2017-07-21T00:52:44.385Z,14.57
2017-07-21T00:53:12.440Z,14.56
2017-07-21T00:53:40.685Z,14.6
2017-07-21T00:54:08.810Z,14.57
2017-07-21T00:54:36.991Z,14.63
2017-07-21T00:55:05.279Z,14.69
2017-07-21T00:55:33.291Z,14.6
2017-07-21T00:56:01.357Z,14.63
2017-07-21T00:56:29.479Z,14.69
2017-07-21T00:56:57.738Z,14.63
2017-07-21T00:57:25.943Z,14.63
2017-07-21T00:57:54.079Z,14.56
2017-07-21T00:58:22.195Z,14.57
2017-07-21T00:58:50.450Z,14.52
2017-07-21T00:59:18.772Z,14.49
2017-07-21T00:59:46.997Z,14.48
2017-07-21T01:00:15.297Z,14.44
2017-07-21T01:00:43.314Z,14.42
2017-07-21T01:01:11.450Z,14.41
2017-07-21T01:01:39.560Z,14.39
2017-07-21T01:02:07.768Z,14.34
2017-07-21T01:02:35.871Z,14.31
2017-07-21T01:03:04.119Z,14.28
2017-07-21T01:03:32.372Z,14.31
2017-07-21T01:04:00.496Z,14.36
2017-07-21T01:04:28.657Z,14.36
2017-07-21T01:04:57.032Z,14.3
2017-07-21T01:05:25.249Z,14.31
2017-07-21T01:05:53.356Z,14.3
2017-07-21T01:06:21.553Z,14.31
2017-07-21T01:06:49.757Z,14.36
2017-07-21T01:07:18.009Z,14.34
2017-07-21T01:07:46.156Z,14.3
2017-07-21T01:08:14.308Z,14.31
2017-07-21T01:08:42.546Z,14.34
2017-07-21T01:09:10.775Z,14.36
2017-07-21T01:09:38.884Z,14.36
2017-07-21T01:10:07.025Z,14.34
2017-07-21T01:10:35.183Z,14.36
2017-07-21T01:11:03.378Z,14.41
2017-07-21T01:11:31.505Z,14.38
2017-07-21T01:11:59.537Z,14.33
2017-07-21T01:12:27.542Z,14.39
2017-07-21T01:12:55.867Z,14.39
2017-07-21T01:13:24.017Z,14.42
2017-07-21T01:13:52.180Z,14.44
2017-07-21T01:14:20.209Z,14.45
2017-07-21T01:14:48.442Z,14.33
2017-07-21T01:15:16.694Z,14.48
2017-07-21T01:15:44.788Z,14.49
2017-07-21T01:16:12.981Z,14.45
2017-07-21T01:16:41.232Z,14.48
2017-07-21T01:17:09.360Z,14.46
2017-07-21T01:17:37.343Z,14.49
2017-07-21T01:18:05.429Z,14.49
2017-07-21T01:18:33.621Z,14.46
2017-07-21T01:19:01.865Z,14.48
2017-07-21T01:19:30.090Z,14.49
2017-07-21T01:19:58.100Z,14.45
2017-07-21T01:20:26.278Z,14.45
2017-07-21T01:20:54.244Z,14.46
2017-07-21T01:21:22.484Z,14.45
2017-07-21T01:21:50.678Z,14.48
2017-07-21T01:22:18.887Z,14.48
2017-07-21T01:22:47.162Z,14.48
2017-07-21T01:23:15.460Z,14.46
2017-07-21T01:23:43.692Z,14.41
2017-07-21T01:24:11.798Z,14.45
2017-07-21T01:24:40.034Z,14.46
2017-07-21T01:25:08.154Z,14.41
2017-07-21T01:25:36.382Z,14.41
2017-07-21T01:26:04.573Z,14.38
2017-07-21T01:26:32.772Z,14.41
2017-07-21T01:27:00.997Z,14.44
2017-07-21T01:27:29.186Z,14.36
2017-07-21T01:27:57.289Z,14.33
2017-07-21T01:28:25.541Z,14.34
2017-07-21T01:28:53.609Z,14.33
2017-07-21T01:29:21.747Z,14.33
2017-07-21T01:29:50.025Z,14.31
2017-07-21T01:30:18.373Z,14.28
2017-07-21T01:30:46.631Z,14.3
2017-07-21T01:31:14.842Z,14.21
2017-07-21T01:31:43.047Z,14.21
2017-07-21T01:32:11.229Z,14.33
2017-07-21T01:32:39.419Z,14.36
2017-07-21T01:33:07.574Z,14.36
2017-07-21T01:33:35.706Z,14.38
2017-07-21T01:34:03.836Z,14.38
2017-07-21T01:34:31.890Z,14.42
2017-07-21T01:34:59.914Z,14.38
2017-07-21T01:35:28.033Z,14.39
2017-07-21T01:35:56.139Z,14.38
2017-07-21T01:36:24.415Z,14.38
2017-07-21T01:36:52.503Z,14.42
2017-07-21T01:37:20.700Z,14.33
2017-07-21T01:37:48.859Z,14.38
2017-07-21T01:38:17.056Z,14.48
2017-07-21T01:38:45.218Z,14.36
2017-07-21T01:39:13.448Z,14.36
2017-07-21T01:39:41.679Z,14.3
2017-07-21T01:40:09.879Z,14.38
2017-07-21T01:40:38.207Z,14.38
2017-07-21T01:41:06.532Z,14.36
2017-07-21T01:41:34.545Z,14.36
2017-07-21T01:42:02.579Z,14.39
2017-07-21T01:42:30.821Z,14.38
2017-07-21T01:42:59.076Z,14.33
2017-07-21T01:43:27.272Z,14.38
2017-07-21T01:43:55.497Z,14.34
2017-07-21T01:44:23.763Z,14.31
2017-07-21T01:44:51.872Z,14.31
2017-07-21T01:45:20.050Z,14.24
2017-07-21T01:45:48.159Z,14.27
2017-07-21T01:46:16.356Z,14.21
2017-07-21T01:46:44.327Z,14.2
2017-07-21T01:47:12.389Z,14.19
2017-07-21T01:47:40.479Z,14.16
2017-07-21T01:48:08.566Z,14.16
2017-07-21T01:48:36.808Z,14.16
2017-07-21T01:49:04.890Z,14.13
2017-07-21T01:49:32.973Z,14.05
2017-07-21T01:50:01.047Z,14.13
2017-07-21T01:50:29.160Z,14.13
2017-07-21T01:50:57.456Z,14.15
2017-07-21T01:51:25.645Z,14.06
2017-07-21T01:51:53.763Z,14.05
2017-07-21T01:52:21.900Z,14.08
2017-07-21T01:52:50.021Z,14.02
2017-07-21T01:53:18.107Z,13.95
2017-07-21T01:53:46.393Z,14.02
2017-07-21T01:54:14.407Z,14.08
2017-07-21T01:54:42.242Z,13.99
2017-07-21T01:55:10.369Z,14.02
2017-07-21T01:55:38.694Z,13.95
2017-07-21T01:56:06.924Z,13.99
2017-07-21T01:56:35.138Z,13.97
2017-07-21T01:57:03.261Z,13.95
2017-07-21T01:57:31.363Z,13.91
2017-07-21T01:57:59.549Z,13.88
2017-07-21T01:58:27.646Z,13.88
2017-07-21T01:58:55.875Z,13.9
2017-07-21T01:59:24.111Z,13.84
2017-07-21T01:59:52.300Z,13.86
2017-07-21T02:00:20.504Z,13.9
2017-07-21T02:00:48.677Z,13.83
2017-07-21T02:01:16.802Z,13.81
2017-07-21T02:01:45.055Z,13.75
2017-07-21T02:02:13.193Z,13.75
2017-07-21T02:02:41.319Z,13.75
2017-07-21T02:03:09.543Z,13.72
2017-07-21T02:03:37.712Z,13.68
2017-07-21T02:04:05.877Z,13.78
2017-07-21T02:04:34.057Z,13.68
2017-07-21T02:05:02.195Z,13.62
2017-07-21T02:05:30.317Z,13.65
2017-07-21T02:05:58.570Z,13.6
2017-07-21T02:06:26.699Z,13.51
2017-07-21T02:06:54.907Z,13.53
2017-07-21T02:07:23.080Z,13.54
2017-07-21T02:07:51.226Z,13.53
2017-07-21T02:08:19.421Z,13.6
2017-07-21T02:08:47.664Z,13.54
2017-07-21T02:09:15.748Z,13.63
2017-07-21T02:09:43.874Z,13.69
2017-07-21T02:10:11.962Z,13.58
2017-07-21T02:10:39.990Z,13.65
2017-07-21T02:11:08.121Z,13.6
2017-07-21T02:11:36.322Z,13.58
2017-07-21T02:12:04.424Z,13.65
2017-07-21T02:12:32.621Z,13.63
2017-07-21T02:13:00.810Z,13.62
2017-07-21T02:13:29.033Z,13.58
2017-07-21T02:13:57.208Z,13.62
2017-07-21T02:14:25.469Z,13.62
2017-07-21T02:14:53.582Z,13.72
2017-07-21T02:15:21.779Z,13.66
2017-07-21T02:15:50.190Z,13.65
2017-07-21T02:16:18.395Z,13.75
2017-07-21T02:16:46.617Z,13.78
2017-07-21T02:17:14.756Z,13.72
2017-07-21T02:17:42.965Z,13.65
2017-07-21T02:18:11.092Z,13.73
2017-07-21T02:18:39.192Z,13.76
2017-07-21T02:19:07.424Z,13.73
2017-07-21T02:19:35.614Z,13.72
2017-07-21T02:20:03.787Z,13.73
2017-07-21T02:20:31.824Z,13.72
2017-07-21T02:20:59.797Z,13.79
2017-07-21T02:21:27.999Z,13.73
2017-07-21T02:21:56.258Z,13.76
2017-07-21T02:22:24.340Z,13.76
2017-07-21T02:22:52.463Z,13.79
2017-07-21T02:23:20.552Z,13.79
2017-07-21T02:23:48.582Z,13.86
2017-07-21T02:24:16.669Z,13.78
2017-07-21T02:24:44.775Z,13.9
2017-07-21T02:25:12.889Z,13.87
2017-07-21T02:25:40.895Z,13.91
2017-07-21T02:26:09.094Z,13.86
2017-07-21T02:26:37.093Z,13.88
2017-07-21T02:27:05.342Z,13.95
2017-07-21T02:27:33.603Z,13.94
2017-07-21T02:28:01.624Z,13.95
2017-07-21T02:28:29.843Z,14.02
2017-07-21T02:28:58.062Z,13.97
2017-07-21T02:29:26.121Z,14.03
2017-07-21T02:29:54.241Z,13.97
2017-07-21T02:30:22.348Z,14.12
2017-07-21T02:30:50.429Z,14.03
2017-07-21T02:31:18.758Z,14.03
2017-07-21T02:31:46.910Z,14.05
2017-07-21T02:32:15.152Z,14.06
2017-07-21T02:32:43.258Z,14.08
2017-07-21T02:33:11.356Z,14.13
2017-07-21T02:33:39.440Z,14.08
2017-07-21T02:34:07.654Z,14.06
2017-07-21T02:34:35.801Z,14.08
2017-07-21T02:35:04.050Z,14.12
2017-07-21T02:35:32.220Z,14.15
2017-07-21T02:36:00.482Z,14.03
2017-07-21T02:36:28.583Z,14.23
2017-07-21T02:36:56.731Z,14.12
2017-07-21T02:37:24.794Z,14.13
2017-07-21T02:37:53.013Z,14.11
2017-07-21T02:38:21.103Z,14.21
2017-07-21T02:38:49.244Z,14.2
2017-07-21T02:39:17.236Z,14.16
2017-07-21T02:39:45.421Z,14.19
2017-07-21T02:40:13.658Z,14.13
2017-07-21T02:40:41.754Z,14.2
2017-07-21T02:41:10.075Z,14.21
2017-07-21T02:41:38.203Z,14.2
2017-07-21T02:42:06.328Z,14.16
2017-07-21T02:42:34.539Z,14.21
2017-07-21T02:43:02.780Z,14.21
2017-07-21T02:43:31.018Z,14.16
2017-07-21T02:43:59.233Z,14.21
2017-07-21T02:44:27.346Z,14.19
2017-07-21T02:44:55.477Z,14.16
2017-07-21T02:45:23.539Z,14.15
2017-07-21T02:45:51.727Z,14.19
2017-07-21T02:46:19.856Z,14.16
2017-07-21T02:46:47.856Z,14.2
2017-07-21T02:47:15.977Z,14.21
2017-07-21T02:47:44.196Z,14.19
2017-07-21T02:48:12.327Z,14.16
2017-07-21T02:48:40.540Z,14.16
2017-07-21T02:49:08.742Z,14.19
2017-07-21T02:49:36.967Z,14.2
2017-07-21T02:50:05.121Z,14.19
2017-07-21T02:50:33.238Z,14.12
2017-07-21T02:51:01.344Z,14.19
2017-07-21T02:51:29.702Z,14.12
2017-07-21T02:51:57.850Z,14.16
2017-07-21T02:52:26.062Z,14.09
2017-07-21T02:52:54.246Z,14.06
2017-07-21T02:53:22.405Z,14.13
2017-07-21T02:53:50.548Z,14.08
2017-07-21T02:54:18.761Z,14.09
2017-07-21T02:54:46.779Z,14.05
2017-07-21T02:55:15.016Z,14.06
2017-07-21T02:55:43.207Z,14.09
2017-07-21T02:56:11.401Z,13.95
2017-07-21T02:56:39.673Z,14.05
2017-07-21T02:57:07.862Z,14.03
2017-07-21T02:57:35.983Z,14.01
2017-07-21T02:58:04.052Z,14.06
2017-07-21T02:58:32.228Z,13.99
2017-07-21T02:59:00.332Z,14.03
2017-07-21T02:59:28.295Z,14.11
2017-07-21T02:59:56.334Z,13.97
2017-07-21T03:00:24.514Z,14.05
2017-07-21T03:00:52.639Z,13.97
2017-07-21T03:01:20.780Z,13.99
2017-07-21T03:01:48.990Z,14.05
2017-07-21T03:02:17.040Z,14.01
2017-07-21T03:02:45.257Z,14.03
2017-07-21T03:03:13.526Z,13.97
2017-07-21T03:03:41.668Z,14.03
2017-07-21T03:04:09.918Z,13.91
2017-07-21T03:04:38.113Z,13.97
2017-07-21T03:05:06.052Z,13.99
2017-07-21T03:05:34.189Z,13.95
2017-07-21T03:06:02.355Z,13.91
2017-07-21T03:06:30.505Z,13.9
2017-07-21T03:06:58.767Z,13.91
2017-07-21T03:07:26.917Z,13.87
2017-07-21T03:07:55.153Z,13.87
2017-07-21T03:08:23.265Z,13.81
2017-07-21T03:08:51.448Z,13.83
2017-07-21T03:09:19.644Z,13.81
2017-07-21T03:09:47.896Z,13.79
2017-07-21T03:10:16.091Z,13.75
2017-07-21T03:10:44.076Z,13.73
2017-07-21T03:11:12.186Z,13.72
2017-07-21T03:11:40.263Z,13.76
2017-07-21T03:12:08.304Z,13.73
2017-07-21T03:12:36.527Z,13.76
2017-07-21T03:13:04.703Z,13.7
2017-07-21T03:13:32.876Z,13.73
2017-07-21T03:14:01.101Z,13.66
2017-07-21T03:14:29.341Z,13.63
2017-07-21T03:14:57.489Z,13.65
2017-07-21T03:15:25.770Z,13.65
2017-07-21T03:15:53.889Z,13.62
2017-07-21T03:16:21.999Z,13.58
2017-07-21T03:16:50.210Z,13.55
2017-07-21T03:17:18.437Z,13.51
2017-07-21T03:17:46.686Z,13.5
2017-07-21T03:18:14.921Z,13.53
2017-07-21T03:18:43.068Z,13.54
2017-07-21T03:19:11.283Z,13.51
2017-07-21T03:19:39.465Z,13.47
2017-07-21T03:20:07.475Z,13.51
2017-07-21T03:20:35.693Z,13.47
2017-07-21T03:21:03.684Z,13.45
2017-07-21T03:21:31.835Z,13.48
2017-07-21T03:21:59.883Z,13.36
2017-07-21T03:22:28.122Z,13.36
2017-07-21T03:22:56.226Z,13.36
2017-07-21T03:23:24.221Z,13.4
2017-07-21T03:23:52.332Z,13.42
2017-07-21T03:24:20.579Z,13.37
2017-07-21T03:24:48.810Z,13.48
2017-07-21T03:25:17.056Z,13.51
2017-07-21T03:25:45.223Z,13.53
2017-07-21T03:26:13.358Z,13.55
2017-07-21T03:26:41.701Z,13.5
2017-07-21T03:27:09.960Z,13.42
2017-07-21T03:27:38.172Z,13.54
2017-07-21T03:28:06.372Z,13.47
2017-07-21T03:28:34.623Z,13.45
2017-07-21T03:29:02.739Z,13.4
2017-07-21T03:29:30.965Z,13.44
2017-07-21T03:29:59.185Z,13.39
2017-07-21T03:30:27.324Z,13.5
2017-07-21T03:30:55.355Z,13.4
2017-07-21T03:31:23.583Z,13.39
2017-07-21T03:31:51.806Z,13.37
2017-07-21T03:32:19.956Z,13.31
2017-07-21T03:32:48.195Z,13.35
2017-07-21T03:33:16.360Z,13.29
2017-07-21T03:33:44.485Z,13.32
2017-07-21T03:34:12.704Z,13.31
2017-07-21T03:34:40.947Z,13.29
2017-07-21T03:35:09.121Z,13.28
2017-07-21T03:35:37.370Z,13.2
2017-07-21T03:36:05.434Z,13.25
2017-07-21T03:36:33.452Z,13.24
2017-07-21T03:37:01.726Z,13.19
2017-07-21T03:37:29.853Z,13.24
2017-07-21T03:37:58.034Z,13.17
2017-07-21T03:38:26.165Z,13.14
2017-07-21T03:38:54.341Z,13.16
2017-07-21T03:39:22.371Z,13.14
2017-07-21T03:39:50.606Z,13.16
2017-07-21T03:40:18.739Z,13.11
2017-07-21T03:40:46.763Z,13.09
2017-07-21T03:41:14.851Z,13.14
2017-07-21T03:41:43.118Z,13.16
2017-07-21T03:42:11.331Z,13.11
2017-07-21T03:42:39.566Z,13.21
2017-07-21T03:43:07.771Z,13.2
2017-07-21T03:43:35.946Z,13.25
2017-07-21T03:44:04.092Z,13.28
2017-07-21T03:44:32.177Z,13.29
2017-07-21T03:45:00.194Z,13.36
2017-07-21T03:45:28.285Z,13.35
2017-07-21T03:45:56.177Z,13.35
2017-07-21T03:46:24.396Z,13.45
2017-07-21T03:46:52.787Z,13.44
2017-07-21T03:47:20.993Z,13.31
2017-07-21T03:47:49.200Z,13.37
2017-07-21T03:48:17.402Z,13.32
2017-07-21T03:48:45.510Z,13.32
2017-07-21T03:49:13.417Z,13.25
2017-07-21T03:49:41.618Z,13.19
2017-07-21T03:50:09.767Z,13.19
2017-07-21T03:50:37.933Z,13.2
2017-07-21T03:51:06.120Z,13.2
2017-07-21T03:51:34.313Z,13.19
2017-07-21T03:52:02.477Z,13.19
2017-07-21T03:52:30.682Z,13.14
2017-07-21T03:52:58.843Z,13.13
2017-07-21T03:53:27.106Z,13.16
2017-07-21T03:53:55.132Z,13.1
2017-07-21T03:54:23.242Z,13.11
2017-07-21T03:54:51.422Z,12.99
2017-07-21T03:55:19.544Z,12.96
2017-07-21T03:55:47.660Z,12.92
2017-07-21T03:56:15.836Z,12.88
2017-07-21T03:56:43.957Z,12.94
2017-07-21T03:57:12.304Z,12.88
2017-07-21T03:57:40.401Z,13.02
2017-07-21T03:58:08.507Z,12.96
2017-07-21T03:58:36.498Z,12.94
2017-07-21T03:59:04.689Z,12.86
2017-07-21T03:59:32.815Z,12.84
2017-07-21T04:00:01.045Z,12.86
2017-07-21T04:00:29.099Z,12.88
2017-07-21T04:00:57.231Z,12.86
2017-07-21T04:01:25.256Z,12.91
2017-07-21T04:01:53.451Z,12.8
2017-07-21T04:02:21.608Z,12.73
2017-07-21T04:02:49.674Z,12.78
2017-07-21T04:03:17.819Z,12.86
2017-07-21T04:03:45.852Z,12.81
2017-07-21T04:04:13.919Z,12.73
2017-07-21T04:04:42.009Z,12.7
2017-07-21T04:05:10.255Z,12.7
2017-07-21T04:05:38.483Z,12.73
2017-07-21T04:06:06.580Z,12.76
2017-07-21T04:06:34.804Z,12.73
2017-07-21T04:07:02.916Z,12.59
2017-07-21T04:07:31.035Z,12.65
2017-07-21T04:07:59.241Z,12.66
2017-07-21T04:08:27.340Z,12.66
2017-07-21T04:08:55.554Z,12.65
2017-07-21T04:09:23.779Z,12.63
2017-07-21T04:09:51.990Z,12.65
2017-07-21T04:10:20.086Z,12.69
2017-07-21T04:10:48.296Z,12.63
2017-07-21T04:11:16.415Z,12.61
2017-07-21T04:11:44.483Z,12.65
2017-07-21T04:12:12.847Z,12.65
2017-07-21T04:12:41.078Z,12.66
2017-07-21T04:13:09.227Z,12.63
2017-07-21T04:13:37.279Z,12.58
2017-07-21T04:14:05.469Z,12.66
2017-07-21T04:14:33.699Z,12.62
2017-07-21T04:15:01.893Z,12.58
2017-07-21T04:15:30.034Z,12.59
2017-07-21T04:15:58.196Z,12.56
2017-07-21T04:16:26.412Z,12.56
2017-07-21T04:16:54.524Z,12.58
2017-07-21T04:17:22.820Z,12.51
2017-07-21T04:17:51.109Z,12.58
2017-07-21T04:18:19.154Z,12.62
2017-07-21T04:18:47.354Z,12.48
2017-07-21T04:19:15.427Z,12.53
2017-07-21T04:19:43.631Z,12.48
2017-07-21T04:20:11.739Z,12.56
2017-07-21T04:20:39.771Z,12.59
2017-07-21T04:21:07.919Z,12.55
2017-07-21T04:21:36.033Z,12.63
2017-07-21T04:22:04.249Z,12.58
2017-07-21T04:22:32.551Z,12.58
2017-07-21T04:23:00.845Z,12.58
2017-07-21T04:23:28.934Z,12.58
2017-07-21T04:23:57.139Z,12.59
2017-07-21T04:24:25.257Z,12.56
2017-07-21T04:24:53.403Z,12.61
2017-07-21T04:25:21.645Z,12.48
2017-07-21T04:25:49.823Z,12.48
2017-07-21T04:26:18.076Z,12.59
2017-07-21T04:26:46.160Z,12.52
2017-07-21T04:27:14.509Z,12.59
2017-07-21T04:27:42.731Z,12.62
2017-07-21T04:28:10.782Z,12.61
2017-07-21T04:28:38.876Z,12.62
2017-07-21T04:29:06.977Z,12.53
2017-07-21T04:29:34.996Z,12.55
2017-07-21T04:30:03.242Z,12.58
2017-07-21T04:30:31.269Z,12.55
2017-07-21T04:30:59.465Z,12.47
2017-07-21T04:31:27.708Z,12.53
2017-07-21T04:31:55.916Z,12.45
2017-07-21T04:32:24.162Z,12.48
2017-07-21T04:32:52.265Z,12.58
2017-07-21T04:33:20.462Z,12.48
2017-07-21T04:33:48.479Z,12.48
2017-07-21T04:34:16.668Z,12.53
2017-07-21T04:34:44.876Z,12.44
2017-07-21T04:35:12.972Z,12.48
2017-07-21T04:35:41.103Z,12.53
2017-07-21T04:36:09.360Z,12.48
2017-07-21T04:36:37.553Z,12.52
2017-07-21T04:37:05.648Z,12.55
2017-07-21T04:37:34.000Z,12.55
2017-07-21T04:38:02.155Z,12.61
2017-07-21T04:38:30.285Z,12.51
2017-07-21T04:38:58.430Z,12.58
2017-07-21T04:39:26.567Z,12.65
2017-07-21T04:39:54.654Z,12.63
2017-07-21T04:40:22.907Z,12.62
2017-07-21T04:40:51.146Z,12.7
2017-07-21T04:41:19.341Z,12.71
2017-07-21T04:41:47.591Z,12.8
2017-07-21T04:42:15.718Z,12.78
2017-07-21T04:42:43.856Z,12.84
2017-07-21T04:43:12.082Z,12.77
2017-07-21T04:43:40.369Z,12.89
2017-07-21T04:44:08.527Z,12.88
2017-07-21T04:44:36.651Z,12.95
2017-07-21T04:45:04.864Z,12.96
2017-07-21T04:45:33.047Z,12.96
2017-07-21T04:46:01.292Z,12.99
2017-07-21T04:46:29.472Z,12.86
2017-07-21T04:46:57.702Z,12.86
2017-07-21T04:47:26.054Z,12.83
2017-07-21T04:47:54.116Z,12.96
2017-07-21T04:48:22.394Z,12.94
2017-07-21T04:48:50.665Z,12.84
2017-07-21T04:49:18.724Z,12.86
2017-07-21T04:49:46.725Z,12.88
2017-07-21T04:50:14.733Z,12.92
2017-07-21T04:50:42.807Z,12.98
2017-07-21T04:51:11.033Z,12.88
2017-07-21T04:51:39.290Z,12.84
2017-07-21T04:52:07.497Z,12.91
2017-07-21T04:52:35.705Z,12.86
2017-07-21T04:53:03.832Z,12.83
2017-07-21T04:53:31.916Z,12.7
2017-07-21T04:54:00.015Z,12.76
2017-07-21T04:54:28.213Z,12.78
2017-07-21T04:54:56.289Z,12.71
2017-07-21T04:55:24.423Z,12.73
2017-07-21T04:55:52.404Z,12.81
2017-07-21T04:56:20.592Z,12.73
2017-07-21T04:56:48.803Z,12.71
2017-07-21T04:57:17.024Z,12.69
2017-07-21T04:57:45.226Z,12.71
2017-07-21T04:58:13.439Z,12.66
2017-07-21T04:58:41.661Z,12.63
2017-07-21T04:59:09.701Z,12.59
2017-07-21T04:59:37.849Z,12.55
2017-07-21T05:00:06.113Z,12.48
2017-07-21T05:00:34.296Z,12.53
2017-07-21T05:01:02.398Z,12.56
2017-07-21T05:01:30.614Z,12.52
2017-07-21T05:01:58.695Z,12.53
2017-07-21T05:02:26.820Z,12.52
2017-07-21T05:02:55.170Z,12.53
2017-07-21T05:03:23.283Z,12.48
2017-07-21T05:03:51.402Z,12.43
2017-07-21T05:04:19.628Z,12.45
2017-07-21T05:04:47.892Z,12.41
2017-07-21T05:05:15.926Z,12.51
2017-07-21T05:05:44.203Z,12.4
2017-07-21T05:06:12.326Z,12.41
2017-07-21T05:06:40.540Z,12.45
2017-07-21T05:07:08.802Z,12.4
2017-07-21T05:07:37.055Z,12.28
2017-07-21T05:08:05.190Z,12.37
2017-07-21T05:08:33.325Z,12.31
2017-07-21T05:09:01.349Z,12.43
2017-07-21T05:09:29.577Z,12.36
2017-07-21T05:09:57.580Z,12.34
2017-07-21T05:10:25.834Z,12.45
2017-07-21T05:10:54.032Z,12.45
2017-07-21T05:11:22.261Z,12.34
2017-07-21T05:11:50.445Z,12.36
2017-07-21T05:12:18.643Z,12.44
2017-07-21T05:12:46.867Z,12.36
2017-07-21T05:13:15.040Z,12.45
2017-07-21T05:13:43.230Z,12.43
2017-07-21T05:14:11.243Z,12.43
2017-07-21T05:14:39.444Z,12.41
2017-07-21T05:15:07.652Z,12.45
2017-07-21T05:15:35.867Z,12.33
2017-07-21T05:16:04.109Z,12.33
2017-07-21T05:16:32.292Z,12.34
2017-07-21T05:17:00.375Z,12.4
2017-07-21T05:17:28.595Z,12.34
2017-07-21T05:17:56.992Z,12.34
2017-07-21T05:18:25.090Z,12.41
2017-07-21T05:18:53.287Z,12.36
2017-07-21T05:19:21.509Z,12.29
2017-07-21T05:19:49.648Z,12.28
2017-07-21T05:20:17.902Z,12.26
2017-07-21T05:20:46.056Z,12.36
2017-07-21T05:21:14.105Z,12.33
2017-07-21T05:21:42.222Z,12.34
2017-07-21T05:22:10.363Z,12.28
2017-07-21T05:22:38.547Z,12.33
2017-07-21T05:23:06.847Z,12.33
2017-07-21T05:23:35.078Z,12.36
2017-07-21T05:24:03.264Z,12.37
2017-07-21T05:24:31.487Z,12.25
2017-07-21T05:24:59.649Z,12.29
2017-07-21T05:25:27.857Z,12.26
2017-07-21T05:25:56.016Z,12.23
2017-07-21T05:26:24.169Z,12.26
2017-07-21T05:26:52.403Z,12.33
2017-07-21T05:27:20.627Z,12.33
2017-07-21T05:27:48.941Z,12.38
2017-07-21T05:28:16.874Z,12.29
2017-07-21T05:28:45.016Z,12.29
2017-07-21T05:29:13.095Z,12.34
2017-07-21T05:29:41.313Z,12.38
2017-07-21T05:30:09.538Z,12.4
2017-07-21T05:30:37.777Z,12.34
2017-07-21T05:31:05.946Z,12.41
2017-07-21T05:31:34.002Z,12.41
2017-07-21T05:32:02.271Z,12.41
2017-07-21T05:32:30.357Z,12.43
2017-07-21T05:32:58.565Z,12.4
2017-07-21T05:33:26.707Z,12.43
2017-07-21T05:33:54.622Z,12.47
2017-07-21T05:34:22.748Z,12.41
2017-07-21T05:34:51.032Z,12.43
2017-07-21T05:35:19.060Z,12.44
2017-07-21T05:35:47.182Z,12.47
2017-07-21T05:36:15.442Z,12.51
2017-07-21T05:36:43.543Z,12.52
2017-07-21T05:37:11.744Z,12.47
2017-07-21T05:37:40.012Z,12.45
2017-07-21T05:38:08.275Z,12.52
2017-07-21T05:38:36.428Z,12.55
2017-07-21T05:39:04.550Z,12.48
2017-07-21T05:39:32.646Z,12.52
2017-07-21T05:40:00.577Z,12.44
2017-07-21T05:40:28.815Z,12.48
2017-07-21T05:40:56.991Z,12.41
2017-07-21T05:41:25.124Z,12.51
2017-07-21T05:41:53.277Z,12.33
2017-07-21T05:42:21.405Z,12.31
2017-07-21T05:42:49.620Z,12.36
2017-07-21T05:43:17.925Z,12.37
2017-07-21T05:43:46.072Z,12.36
2017-07-21T05:44:14.213Z,12.37
2017-07-21T05:44:42.388Z,12.28
2017-07-21T05:45:10.503Z,12.26
2017-07-21T05:45:38.708Z,12.26
2017-07-21T05:46:06.780Z,12.23
2017-07-21T05:46:34.933Z,12.22
2017-07-21T05:47:03.160Z,12.18
2017-07-21T05:47:31.290Z,12.18
2017-07-21T05:47:59.476Z,12.13
2017-07-21T05:48:27.636Z,12.16
2017-07-21T05:48:55.836Z,12.13
2017-07-21T05:49:23.932Z,12.18
2017-07-21T05:49:52.186Z,12.16
2017-07-21T05:50:20.271Z,12.16
2017-07-21T05:50:48.511Z,12.18
2017-07-21T05:51:16.596Z,12.19
2017-07-21T05:51:44.712Z,12.18
2017-07-21T05:52:12.800Z,12.13
2017-07-21T05:52:40.804Z,12.13
2017-07-21T05:53:09.177Z,12.2
2017-07-21T05:53:37.342Z,12.15
2017-07-21T05:54:05.467Z,12.13
2017-07-21T05:54:33.588Z,12.16
2017-07-21T05:55:01.708Z,12.11
2017-07-21T05:55:29.813Z,12.16
2017-07-21T05:55:57.971Z,12.15
2017-07-21T05:56:26.193Z,12.1
2017-07-21T05:56:54.387Z,12.13
2017-07-21T05:57:22.560Z,12.15
2017-07-21T05:57:50.791Z,12.16
2017-07-21T05:58:18.726Z,12.11
2017-07-21T05:58:46.779Z,12.11
2017-07-21T05:59:14.821Z,12.13
2017-07-21T05:59:42.761Z,12.04
2017-07-21T06:00:11.048Z,12.05
2017-07-21T06:00:39.271Z,12.1
2017-07-21T06:01:07.491Z,12.1
2017-07-21T06:01:35.603Z,12.15
2017-07-21T06:02:03.711Z,12.18
2017-07-21T06:02:31.821Z,12.11
2017-07-21T06:03:00.004Z,12.13
2017-07-21T06:03:28.359Z,12.16